Time;durP1;ratioP1;P1;durP2;ratioP2;P2;SDS_P1;SDS_P2;PMS_P1;PMS_P2;Temp;Humidity;BMP_temperature;BMP_pressure;BME280_temperature;BME280_humidity;BME280_pressure;Samples;Min_cycle;Max_cycle;Signal;HPM_P1;HPM_P2
2022/04/28 00:01:40;;;;;;;;;;;;;;;16.76;56.89;99967.91;4484802;31;34298;-69
2022/04/28 00:04:09;;;;;;;;;;;;;;;16.69;56.71;99968.59;4483827;31;32254;-69
2022/04/28 00:06:37;;;;;;;;;;;;;;;16.71;56.75;99967.44;4486569;31;32328;-69
2022/04/28 00:09:06;;;;;;;;;;;;;;;16.60;56.37;99964.94;4482539;31;34072;-74
2022/04/28 00:11:34;;;;;;;;;;;;;;;16.76;56.11;99972.47;4484642;31;35449;-67
2022/04/28 00:14:02;;;;;;;;;;;;;;;16.78;56.11;99970.44;4479877;31;34310;-69
2022/04/28 00:16:31;;;;;;;;;;;;;;;16.73;56.56;99972.72;4481635;31;33349;-72
2022/04/28 00:19:00;;;;;;;;;;;;;;;16.72;56.63;99966.44;4481743;31;34240;-69
2022/04/28 00:21:29;;;;;;;;;;;;;;;16.56;57.00;99965.38;4483717;31;34262;-70
2022/04/28 00:23:57;;;;;;;;;;;;;;;16.82;56.37;99970.97;4484667;31;34458;-69
2022/04/28 00:26:26;;;;;;;;;;;;;;;16.87;56.30;99969.53;4485645;31;34696;-68
2022/04/28 00:28:53;;;;;;;;;;;;;;;16.43;57.10;99969.25;4486951;31;33918;-69
2022/04/28 00:31:22;;;;;;;;;;;;;;;16.75;56.30;99965.31;4484343;31;32914;-69
2022/04/28 00:33:51;;;;;;;;;;;;;;;16.78;56.13;99965.03;4490590;31;34397;-69
2022/04/28 00:36:19;;;;;;;;;;;;;;;16.92;55.29;99964.56;4481441;31;33435;-68
2022/04/28 00:38:47;;;;;;;;;;;;;;;16.87;55.63;99966.00;4487018;31;35080;-70
2022/04/28 00:41:16;;;;;;;;;;;;;;;16.84;55.65;99969.00;4483662;31;32592;-70
2022/04/28 00:43:49;;;;;;;;;;;;;;;16.88;55.28;99967.69;4483409;31;34106;-70
2022/04/28 00:46:17;;;;;;;;;;;;;;;16.92;54.85;99971.81;4484729;31;32198;-67
2022/04/28 00:51:32;;;;;;;;;;;;;;;16.77;55.19;99977.69;4483048;31;34254;-67
2022/04/28 00:54:01;;;;;;;;;;;;;;;16.85;55.02;99976.94;4481755;31;35181;-67
2022/04/28 00:56:30;;;;;;;;;;;;;;;16.59;55.29;99975.88;4483934;31;33534;-67
2022/04/28 00:59:02;;;;;;;;;;;;;;;16.66;55.48;99977.87;4484455;31;36207;-71
2022/04/28 01:01:32;;;;;;;;;;;;;;;16.67;55.28;99976.88;4484840;31;32904;-68
2022/04/28 01:04:01;;;;;;;;;;;;;;;16.50;55.59;99974.91;4484535;31;33565;-73
2022/04/28 01:06:29;;;;;;;;;;;;;;;16.33;56.68;99979.22;4486155;31;33318;-71
2022/04/28 01:08:57;;;;;;;;;;;;;;;16.39;55.84;99975.09;4472042;31;34338;-72
2022/04/28 01:11:26;;;;;;;;;;;;;;;16.25;56.78;99968.31;4472487;31;33789;-72
2022/04/28 01:13:55;;;;;;;;;;;;;;;16.56;55.87;99963.53;4485468;31;35483;-70
2022/04/28 01:16:24;;;;;;;;;;;;;;;16.59;55.62;99965.94;4485472;31;34525;-71
2022/04/28 01:18:53;;;;;;;;;;;;;;;16.73;55.30;99965.47;4483151;31;34270;-70
2022/04/28 01:21:20;;;;;;;;;;;;;;;16.73;55.23;99962.75;4486898;31;35310;-72
2022/04/28 01:23:49;;;;;;;;;;;;;;;16.75;55.17;99959.91;4487818;31;35108;-71
2022/04/28 01:26:18;;;;;;;;;;;;;;;16.75;55.09;99959.91;4485590;31;35047;-70
2022/04/28 01:28:48;;;;;;;;;;;;;;;16.73;55.06;99956.50;4485533;31;32345;-71
2022/04/28 01:31:16;;;;;;;;;;;;;;;16.72;55.05;99954.78;4486622;31;33613;-72
2022/04/28 01:33:45;;;;;;;;;;;;;;;16.61;55.39;99958.53;4483248;31;34914;-71
2022/04/28 01:36:14;;;;;;;;;;;;;;;16.61;55.47;99950.44;4490877;31;33516;-71
2022/04/28 01:38:42;;;;;;;;;;;;;;;16.65;55.45;99950.97;4491099;31;33889;-67
2022/04/28 01:41:12;;;;;;;;;;;;;;;16.62;55.62;99956.69;4482051;31;34265;-67
2022/04/28 01:43:41;;;;;;;;;;;;;;;16.58;55.58;99956.13;4485990;31;32351;-67
2022/04/28 01:46:11;;;;;;;;;;;;;;;16.58;55.71;99957.97;4489175;31;32723;-66
2022/04/28 01:48:40;;;;;;;;;;;;;;;16.58;55.78;99947.19;4483829;31;32824;-67
2022/04/28 01:56:45;;;;;;;;;;;;;;;16.50;55.78;99947.91;4483261;31;34327;-67
2022/04/28 01:59:13;;;;;;;;;;;;;;;16.42;55.90;99947.81;4486420;31;34060;-67
2022/04/28 02:01:42;;;;;;;;;;;;;;;16.52;55.47;99946.75;4488191;31;34387;-66
2022/04/28 02:04:11;;;;;;;;;;;;;;;16.49;55.71;99960.56;4486501;31;33860;-69
2022/04/28 02:06:42;;;;;;;;;;;;;;;16.52;55.62;99957.56;4486173;31;33248;-67
2022/04/28 02:09:10;;;;;;;;;;;;;;;16.51;55.64;99953.16;4482389;31;33361;-67
2022/04/28 02:11:39;;;;;;;;;;;;;;;16.53;55.44;99955.69;4484803;31;35461;-66
2022/04/28 02:14:09;;;;;;;;;;;;;;;16.29;56.09;99956.22;4471282;31;32847;-69
2022/04/28 02:16:40;;;;;;;;;;;;;;;16.51;55.34;99958.56;4485242;31;34414;-70
2022/04/28 02:19:09;;;;;;;;;;;;;;;16.36;55.34;99948.37;4483042;31;33101;-69
2022/04/28 02:21:40;;;;;;;;;;;;;;;16.29;55.53;99950.81;4482354;31;34436;-70
2022/04/28 02:24:09;;;;;;;;;;;;;;;15.70;57.46;99950.06;4484474;31;34421;-69
2022/04/28 02:26:39;;;;;;;;;;;;;;;16.10;56.72;99945.47;4490337;31;33853;-70
2022/04/28 02:29:08;;;;;;;;;;;;;;;16.15;56.60;99949.44;4487354;31;33803;-70
2022/04/28 02:31:37;;;;;;;;;;;;;;;16.29;55.97;99942.72;4492163;31;33336;-70
2022/04/28 02:34:06;;;;;;;;;;;;;;;16.22;56.24;99947.84;4494053;31;31949;-69
2022/04/28 02:36:35;;;;;;;;;;;;;;;16.18;56.23;99946.44;4490799;31;33420;-70
2022/04/28 02:39:06;;;;;;;;;;;;;;;16.19;56.36;99931.09;4495236;31;33172;-69
2022/04/28 02:41:37;;;;;;;;;;;;;;;16.11;56.36;99941.75;4482372;31;34424;-69
2022/04/28 02:44:06;;;;;;;;;;;;;;;16.03;56.53;99945.19;4490398;31;34344;-70
2022/04/28 02:46:35;;;;;;;;;;;;;;;16.29;55.66;99940.03;4490473;31;33250;-69
2022/04/28 02:49:04;;;;;;;;;;;;;;;16.28;55.74;99947.28;4487325;31;34237;-69
2022/04/28 02:51:34;;;;;;;;;;;;;;;16.12;56.32;99941.63;4486769;31;32857;-69
2022/04/28 02:54:03;;;;;;;;;;;;;;;16.24;55.98;99940.47;4495978;31;33995;-68
2022/04/28 02:56:32;;;;;;;;;;;;;;;16.26;55.72;99946.56;4486060;31;33643;-69
2022/04/28 02:59:01;;;;;;;;;;;;;;;16.27;55.87;99942.00;4487474;31;34217;-69
2022/04/28 03:01:34;;;;;;;;;;;;;;;16.30;55.56;99939.00;4468219;31;34458;-69
2022/04/28 03:04:07;;;;;;;;;;;;;;;16.24;55.54;99951.28;4480215;31;34281;-70
2022/04/28 03:12:09;;;;;;;;;;;;;;;16.27;55.40;99950.09;4481329;32;34504;-68
2022/04/28 03:14:37;;;;;;;;;;;;;;;16.12;55.89;99947.03;4486618;31;34489;-68
2022/04/28 03:17:06;;;;;;;;;;;;;;;16.28;55.36;99946.44;4487004;31;33322;-69
2022/04/28 03:19:35;;;;;;;;;;;;;;;16.19;55.25;99952.69;4482061;31;33018;-68
2022/04/28 03:22:03;;;;;;;;;;;;;;;15.98;55.93;99952.88;4487755;31;34328;-68
2022/04/28 03:24:31;;;;;;;;;;;;;;;16.22;54.93;99958.66;4486110;31;34509;-70
2022/04/28 03:27:00;;;;;;;;;;;;;;;16.03;55.44;99959.53;4478333;31;33836;-68
2022/04/28 03:29:29;;;;;;;;;;;;;;;16.15;55.11;99957.53;4492105;31;34040;-71
2022/04/28 03:31:57;;;;;;;;;;;;;;;16.07;55.41;99965.50;4488678;31;34927;-68
2022/04/28 03:34:27;;;;;;;;;;;;;;;16.11;55.16;99960.66;4487389;31;34228;-68
2022/04/28 03:36:55;;;;;;;;;;;;;;;15.98;55.45;99960.97;4497863;31;33491;-69
2022/04/28 03:39:24;;;;;;;;;;;;;;;16.04;55.20;99963.09;4485651;31;34110;-69
2022/04/28 03:41:53;;;;;;;;;;;;;;;15.98;55.34;99964.50;4489189;31;34395;-70
2022/04/28 03:44:22;;;;;;;;;;;;;;;15.68;55.90;99972.78;4486219;31;34136;-73
2022/04/28 03:46:50;;;;;;;;;;;;;;;15.90;55.31;99963.56;4489905;31;33514;-70
2022/04/28 03:49:19;;;;;;;;;;;;;;;15.96;55.27;99965.69;4485299;31;34038;-68
2022/04/28 03:51:56;;;;;;;;;;;;;;;15.96;55.19;99971.06;4497457;31;33083;-69
2022/04/28 03:54:25;;;;;;;;;;;;;;;15.56;56.15;99974.72;4483731;31;33298;-69
2022/04/28 03:56:54;;;;;;;;;;;;;;;15.55;56.46;99971.19;4498195;31;33424;-68
2022/04/28 03:59:23;;;;;;;;;;;;;;;15.61;56.42;99983.25;4488401;31;33084;-68
2022/04/28 04:01:52;;;;;;;;;;;;;;;15.74;55.71;99981.16;4480488;31;34411;-67
2022/04/28 04:04:21;;;;;;;;;;;;;;;15.59;55.97;99982.53;4480800;31;33969;-68
2022/04/28 04:06:51;;;;;;;;;;;;;;;15.65;55.87;99987.38;4481343;31;34526;-67
2022/04/28 04:09:19;;;;;;;;;;;;;;;15.51;56.42;99980.56;4481175;31;34936;-67
2022/04/28 04:11:48;;;;;;;;;;;;;;;15.61;55.93;99988.66;4480381;31;33373;-68
2022/04/28 04:14:17;;;;;;;;;;;;;;;15.59;56.25;99990.62;4485272;31;35096;-65
2022/04/28 04:16:45;;;;;;;;;;;;;;;15.38;56.70;99996.16;4481443;32;33839;-67
2022/04/28 04:19:14;;;;;;;;;;;;;;;15.60;56.26;99986.94;4484616;31;34368;-70
2022/04/28 04:21:44;;;;;;;;;;;;;;;15.66;56.17;99988.22;4490495;31;34439;-67
2022/04/28 04:24:12;;;;;;;;;;;;;;;15.89;55.17;99992.38;4485340;31;35492;-66
2022/04/28 04:26:40;;;;;;;;;;;;;;;15.95;54.98;99991.78;4488073;31;32608;-67
2022/04/28 04:29:10;;;;;;;;;;;;;;;15.81;55.58;99997.62;4480921;31;34070;-66
2022/04/28 04:34:27;;;;;;;;;;;;;;;15.93;54.95;99998.34;4478888;31;34554;-66
2022/04/28 04:36:56;;;;;;;;;;;;;;;16.04;54.70;99990.09;4494597;31;33191;-68
2022/04/28 04:39:30;;;;;;;;;;;;;;;16.14;54.11;99990.91;4483433;31;34063;-68
2022/04/28 04:41:58;;;;;;;;;;;;;;;15.91;54.49;99992.22;4488623;31;35408;-66
2022/04/28 04:44:27;;;;;;;;;;;;;;;15.86;54.84;99995.38;4482961;32;34349;-67
2022/04/28 04:46:55;;;;;;;;;;;;;;;15.51;55.74;100004.00;4482347;32;34355;-67
2022/04/28 04:49:25;;;;;;;;;;;;;;;15.69;55.29;99990.66;4483666;31;34003;-68
2022/04/28 04:51:55;;;;;;;;;;;;;;;15.66;55.46;99990.91;4495575;31;34372;-66
2022/04/28 04:54:23;;;;;;;;;;;;;;;15.77;54.98;99997.06;4488242;31;34550;-67
2022/04/28 04:56:51;;;;;;;;;;;;;;;15.92;54.88;99999.31;4491660;31;32271;-66
2022/04/28 04:59:20;;;;;;;;;;;;;;;15.83;55.00;99999.22;4487925;31;34388;-66
2022/04/28 05:01:49;;;;;;;;;;;;;;;15.72;55.37;100001.19;4488924;31;34287;-65
2022/04/28 05:04:20;;;;;;;;;;;;;;;15.67;55.43;100007.00;4482577;31;34255;-64
2022/04/28 05:06:49;;;;;;;;;;;;;;;15.59;56.33;100014.91;4484406;31;33174;-67
2022/04/28 05:09:17;;;;;;;;;;;;;;;15.63;56.50;100002.84;4490266;31;36120;-68
2022/04/28 05:11:46;;;;;;;;;;;;;;;15.75;56.35;100009.00;4468775;31;32887;-67
2022/04/28 05:14:15;;;;;;;;;;;;;;;15.74;55.94;100018.09;4498961;31;34335;-69
2022/04/28 05:16:43;;;;;;;;;;;;;;;15.64;56.01;100018.06;4496448;31;33571;-68
2022/04/28 05:19:12;;;;;;;;;;;;;;;15.81;55.79;100014.69;4484252;31;35306;-68
2022/04/28 05:21:42;;;;;;;;;;;;;;;15.68;56.29;100016.81;4482830;31;34646;-69
2022/04/28 05:24:17;;;;;;;;;;;;;;;15.76;56.53;100026.87;4490353;31;33532;-67
2022/04/28 05:26:51;;;;;;;;;;;;;;;15.79;56.72;100027.47;4491372;31;33586;-67
2022/04/28 05:29:20;;;;;;;;;;;;;;;15.94;56.10;100025.19;4492984;31;34801;-67
2022/04/28 05:31:52;;;;;;;;;;;;;;;15.34;58.95;100032.47;4492014;31;35191;-67
2022/04/28 05:34:20;;;;;;;;;;;;;;;16.08;56.35;100032.00;4492536;31;35054;-67
2022/04/28 05:36:50;;;;;;;;;;;;;;;16.11;56.16;100036.25;4490310;31;33940;-67
2022/04/28 05:39:21;;;;;;;;;;;;;;;16.03;56.76;100032.44;4473764;31;34943;-69
2022/04/28 05:41:49;;;;;;;;;;;;;;;16.35;56.01;100035.81;4482657;31;34191;-69
2022/04/28 05:47:06;;;;;;;;;;;;;;;16.22;55.22;100039.69;4483897;31;34278;-71
2022/04/28 05:49:36;;;;;;;;;;;;;;;16.47;55.29;100040.06;4479547;31;33682;-70
2022/04/28 05:52:04;;;;;;;;;;;;;;;16.62;55.26;100043.16;4472432;31;34467;-69
2022/04/28 05:54:32;;;;;;;;;;;;;;;16.72;54.88;100047.53;4482305;31;34258;-68
2022/04/28 05:57:03;;;;;;;;;;;;;;;16.73;54.91;100048.41;4476668;31;32209;-68
2022/04/28 05:59:31;;;;;;;;;;;;;;;16.81;54.52;100050.37;4497182;31;34595;-68
2022/04/28 06:02:02;;;;;;;;;;;;;;;16.89;54.47;100048.66;4490633;31;34396;-68
2022/04/28 06:04:36;;;;;;;;;;;;;;;16.89;54.55;100042.41;4498063;31;33165;-69
2022/04/28 06:07:10;;;;;;;;;;;;;;;16.53;55.45;100047.56;4485109;31;33240;-70
2022/04/28 06:09:45;;;;;;;;;;;;;;;16.69;54.88;100050.53;4482927;31;34255;-68
2022/04/28 06:12:16;;;;;;;;;;;;;;;16.69;54.64;100058.66;4488195;31;33002;-72
2022/04/28 06:14:58;;;;;;;;;;;;;;;16.77;54.74;100060.66;4487805;31;33630;-68
2022/04/28 06:17:27;;;;;;;;;;;;;;;16.67;53.85;100054.37;4492275;31;32344;-70
2022/04/28 06:20:01;;;;;;;;;;;;;;;16.46;55.13;100060.81;4484931;31;35016;-69
2022/04/28 06:22:46;;;;;;;;;;;;;;;16.20;55.37;100057.00;4487448;31;32072;-69
2022/04/28 06:25:23;;;;;;;;;;;;;;;16.46;54.62;100059.97;4500281;31;33268;-70
2022/04/28 06:28:01;;;;;;;;;;;;;;;16.53;55.21;100063.78;4487708;31;33307;-68
2022/04/28 06:30:38;;;;;;;;;;;;;;;16.57;55.56;100073.31;4484861;31;33053;-69
2022/04/28 06:33:11;;;;;;;;;;;;;;;16.75;55.04;100066.19;4491153;31;34421;-70
2022/04/28 06:35:44;;;;;;;;;;;;;;;16.65;54.76;100070.72;4484311;31;33634;-68
2022/04/28 06:38:28;;;;;;;;;;;;;;;16.73;54.44;100072.72;4491494;31;32354;-69
2022/04/28 06:41:08;;;;;;;;;;;;;;;16.93;53.92;100068.97;4492610;31;34243;-71
2022/04/28 06:43:39;;;;;;;;;;;;;;;16.38;54.73;100074.19;4498049;31;33145;-70
2022/04/28 06:46:14;;;;;;;;;;;;;;;16.58;53.79;100075.03;4500140;31;34347;-71
2022/04/28 06:48:55;;;;;;;;;;;;;;;16.53;54.76;100078.16;4487285;31;33394;-69
2022/04/28 06:51:35;;;;;;;;;;;;;;;16.45;54.24;100077.19;4486171;31;34418;-67
2022/04/28 06:54:05;;;;;;;;;;;;;;;16.89;52.51;100073.00;4489369;31;35091;-69
2022/04/28 06:56:45;;;;;;;;;;;;;;;16.52;53.94;100072.91;4491706;31;33929;-67
2022/04/28 06:59:14;;;;;;;;;;;;;;;16.72;52.92;100073.69;4488287;31;34624;-68
2022/04/28 07:01:49;;;;;;;;;;;;;;;16.71;53.16;100074.72;4487652;31;31764;-67
2022/04/28 07:04:22;;;;;;;;;;;;;;;16.72;52.44;100074.53;4499072;31;33437;-67
2022/04/28 07:07:00;;;;;;;;;;;;;;;16.56;53.44;100078.84;4489680;31;34089;-67
2022/04/28 07:09:34;;;;;;;;;;;;;;;16.76;52.77;100075.16;4485427;31;31888;-68
2022/04/28 07:12:27;;;;;;;;;;;;;;;16.74;52.84;100077.13;4489411;31;33898;-68
2022/04/28 07:15:09;;;;;;;;;;;;;;;16.92;52.51;100077.25;4493989;31;33159;-70
2022/04/28 07:17:51;;;;;;;;;;;;;;;16.89;53.02;100086.50;4483047;31;33324;-68
2022/04/28 07:20:21;;;;;;;;;;;;;;;16.76;53.57;100077.87;4485785;31;33783;-71
2022/04/28 07:22:59;;;;;;;;;;;;;;;16.84;53.09;100088.78;4485960;31;32953;-69
2022/04/28 07:25:33;;;;;;;;;;;;;;;16.86;52.60;100075.97;4498259;31;34373;-67
2022/04/28 07:28:07;;;;;;;;;;;;;;;17.06;52.57;100086.72;4482888;31;34485;-71
2022/04/28 07:30:45;;;;;;;;;;;;;;;16.75;53.37;100081.56;4484174;31;32152;-67
2022/04/28 07:33:24;;;;;;;;;;;;;;;16.62;53.67;100089.09;4491628;31;34579;-67
2022/04/28 07:36:05;;;;;;;;;;;;;;;16.49;54.91;100092.94;4486462;31;33358;-71
2022/04/28 07:38:45;;;;;;;;;;;;;;;16.63;54.39;100097.06;4481800;31;33185;-68
2022/04/28 07:41:15;;;;;;;;;;;;;;;15.93;56.34;100096.38;4483849;31;33673;-68
2022/04/28 07:43:44;;;;;;;;;;;;;;;16.07;56.70;100101.34;4469192;31;33764;-68
2022/04/28 07:46:12;;;;;;;;;;;;;;;16.35;56.87;100101.50;4491199;31;33039;-70
2022/04/28 07:48:42;;;;;;;;;;;;;;;16.39;56.27;100100.22;4493772;31;33268;-69
2022/04/28 07:51:10;;;;;;;;;;;;;;;17.27;53.72;100092.78;4474165;32;32433;-68
2022/04/28 07:53:40;;;;;;;;;;;;;;;16.66;55.38;100099.47;4495642;31;32657;-68
2022/04/28 07:56:17;;;;;;;;;;;;;;;16.77;55.56;100104.75;4494363;31;33383;-68
2022/04/28 07:58:46;;;;;;;;;;;;;;;16.95;56.65;100102.16;4478309;32;32931;-70
2022/04/28 08:01:36;;;;;;;;;;;;;;;17.18;55.54;100099.06;4487771;31;34641;-68
2022/04/28 08:04:06;;;;;;;;;;;;;;;17.60;53.86;100102.13;4488113;31;34147;-68
2022/04/28 08:06:36;;;;;;;;;;;;;;;17.60;51.76;100106.72;4472135;32;34251;-68
2022/04/28 08:09:06;;;;;;;;;;;;;;;17.99;52.19;100107.34;4488830;31;34500;-68
2022/04/28 08:11:38;;;;;;;;;;;;;;;18.54;50.41;100107.16;4495485;31;32312;-68
2022/04/28 08:14:07;;;;;;;;;;;;;;;18.85;48.24;100112.16;4470018;32;33669;-68
2022/04/28 08:16:37;;;;;;;;;;;;;;;19.24;47.42;100112.56;4479877;31;33175;-68
2022/04/28 08:19:09;;;;;;;;;;;;;;;19.34;48.05;100119.75;4495375;31;34188;-68
2022/04/28 08:21:38;;;;;;;;;;;;;;;18.72;48.49;100123.44;4492682;31;33691;-68
2022/04/28 08:24:07;;;;;;;;;;;;;;;18.29;47.75;100113.38;4472277;31;32339;-67
2022/04/28 08:26:37;;;;;;;;;;;;;;;18.46;47.76;100119.78;4488790;31;34070;-68
2022/04/28 08:29:05;;;;;;;;;;;;;;;18.24;48.02;100121.97;4487885;31;36386;-69
2022/04/28 08:31:43;;;;;;;;;;;;;;;17.92;49.83;100130.62;4479312;31;32400;-68
2022/04/28 08:34:13;;;;;;;;;;;;;;;18.42;49.00;100121.94;4473208;31;33361;-69
2022/04/28 08:36:43;;;;;;;;;;;;;;;18.65;48.61;100119.63;4491728;31;33511;-68
2022/04/28 08:39:12;;;;;;;;;;;;;;;19.16;46.40;100119.81;4483147;31;35512;-68
2022/04/28 08:41:45;;;;;;;;;;;;;;;18.80;49.13;100118.06;4464471;32;31983;-68
2022/04/28 08:44:17;;;;;;;;;;;;;;;19.47;47.84;100125.56;4480987;31;32969;-68
2022/04/28 08:46:53;;;;;;;;;;;;;;;19.36;46.26;100124.00;4482741;31;33652;-69
2022/04/28 08:49:27;;;;;;;;;;;;;;;19.49;45.60;100126.28;4481159;31;34020;-66
2022/04/28 08:51:59;;;;;;;;;;;;;;;20.19;44.49;100126.84;4480755;31;31315;-70
2022/04/28 08:54:29;;;;;;;;;;;;;;;19.81;45.13;100131.00;4490694;31;33756;-66
2022/04/28 08:57:01;;;;;;;;;;;;;;;19.56;47.02;100140.88;4481810;31;33108;-65
2022/04/28 08:59:32;;;;;;;;;;;;;;;19.24;46.73;100136.16;4484277;31;33226;-68
2022/04/28 09:02:02;;;;;;;;;;;;;;;19.03;46.68;100136.50;4475536;31;32809;-66
2022/04/28 09:04:39;;;;;;;;;;;;;;;18.98;46.95;100133.44;4471957;31;33776;-67
2022/04/28 09:07:12;;;;;;;;;;;;;;;19.05;46.28;100142.63;4471713;31;33600;-67
2022/04/28 09:09:42;;;;;;;;;;;;;;;18.53;48.28;100137.12;4488421;31;33120;-67
2022/04/28 09:12:22;;;;;;;;;;;;;;;18.78;48.31;100139.06;4477517;31;32997;-69
2022/04/28 09:14:55;;;;;;;;;;;;;;;19.15;47.18;100137.94;4479703;31;34064;-69
2022/04/28 09:17:38;;;;;;;;;;;;;;;19.65;46.38;100137.22;4482707;31;34307;-67
2022/04/28 09:20:07;;;;;;;;;;;;;;;18.84;47.46;100140.28;4458837;32;34106;-67
2022/04/28 09:22:41;;;;;;;;;;;;;;;18.94;47.93;100142.88;4479136;31;32818;-67
2022/04/28 09:25:11;;;;;;;;;;;;;;;19.25;47.15;100138.69;4489804;31;32757;-68
2022/04/28 09:27:40;;;;;;;;;;;;;;;19.24;46.95;100141.56;4483976;31;33317;-66
2022/04/28 09:30:12;;;;;;;;;;;;;;;19.66;45.77;100138.06;4468699;31;34416;-68
2022/04/28 09:32:43;;;;;;;;;;;;;;;19.51;45.34;100148.66;4487728;31;33627;-66
2022/04/28 09:35:29;;;;;;;;;;;;;;;18.63;47.69;100144.16;4467470;31;33315;-67
2022/04/28 09:37:59;;;;;;;;;;;;;;;18.95;46.37;100144.59;4497066;31;34639;-69
2022/04/28 09:43:37;;;;;;;;;;;;;;;19.06;48.55;100147.03;4469228;31;32186;-67
2022/04/28 09:46:08;;;;;;;;;;;;;;;19.38;46.60;100153.69;4487817;31;34242;-66
2022/04/28 09:48:38;;;;;;;;;;;;;;;19.52;44.68;100153.94;4476130;31;34230;-66
2022/04/28 09:51:10;;;;;;;;;;;;;;;19.25;45.15;100144.09;4468469;31;33083;-72
2022/04/28 09:53:40;;;;;;;;;;;;;;;19.54;45.25;100160.03;4487793;31;33533;-68
2022/04/28 09:56:13;;;;;;;;;;;;;;;19.30;45.60;100151.78;4488156;31;34073;-67
2022/04/28 09:58:43;;;;;;;;;;;;;;;19.29;45.27;100148.22;4469702;32;33541;-70
2022/04/28 10:01:12;;;;;;;;;;;;;;;19.47;44.34;100152.72;4486094;31;34484;-67
2022/04/28 10:03:41;;;;;;;;;;;;;;;19.69;44.27;100154.03;4473145;32;32781;-67
2022/04/28 10:06:10;;;;;;;;;;;;;;;19.80;42.51;100147.44;4462607;32;34637;-70
2022/04/28 10:08:42;;;;;;;;;;;;;;;19.62;44.00;100147.53;4465601;32;34170;-64
2022/04/28 10:11:17;;;;;;;;;;;;;;;19.28;45.02;100148.38;4474731;32;34528;-66
2022/04/28 10:13:47;;;;;;;;;;;;;;;19.50;43.16;100150.53;4477416;32;33862;-65
2022/04/28 10:16:17;;;;;;;;;;;;;;;19.69;43.26;100148.59;4477391;32;34190;-66
2022/04/28 10:18:51;;;;;;;;;;;;;;;20.08;43.28;100148.03;4465771;32;32599;-65
2022/04/28 10:21:25;;;;;;;;;;;;;;;20.29;42.62;100147.56;4466436;32;34531;-66
2022/04/28 10:32:53;;;;;;;;;;;;;;;20.48;38.00;100147.25;4464835;32;32884;-65
2022/04/28 10:35:40;;;;;;;;;;;;;;;20.79;37.20;100141.16;4474448;32;32505;-66
2022/04/28 10:38:22;;;;;;;;;;;;;;;20.12;39.33;100152.13;4468693;32;34964;-67
2022/04/28 10:41:04;;;;;;;;;;;;;;;20.21;38.21;100148.41;4464096;32;33300;-66
2022/04/28 10:43:33;;;;;;;;;;;;;;;19.45;39.09;100154.72;4464244;32;32937;-66
2022/04/28 10:46:13;;;;;;;;;;;;;;;20.62;38.50;100154.78;4467083;32;33380;-68
2022/04/28 10:48:45;;;;;;;;;;;;;;;20.95;37.76;100146.59;4468945;32;33314;-67
2022/04/28 10:51:15;;;;;;;;;;;;;;;20.05;36.91;100145.66;4465310;32;33658;-67
2022/04/28 10:53:55;;;;;;;;;;;;;;;20.48;37.85;100147.25;4464933;32;34868;-68
2022/04/28 10:56:23;;;;;;;;;;;;;;;19.54;42.06;100154.59;4465293;32;33526;-67
2022/04/28 10:58:55;;;;;;;;;;;;;;;20.10;42.05;100148.75;4466717;32;32765;-68
2022/04/28 11:01:31;;;;;;;;;;;;;;;20.12;42.21;100149.41;4464889;31;35411;-67
2022/04/28 11:04:03;;;;;;;;;;;;;;;20.54;41.04;100152.03;4471534;31;32681;-69
2022/04/28 11:06:37;;;;;;;;;;;;;;;19.38;44.00;100146.38;4481231;31;32784;-68
2022/04/28 11:09:05;;;;;;;;;;;;;;;19.45;42.89;100160.16;4487204;31;32769;-68
2022/04/28 11:11:55;;;;;;;;;;;;;;;19.88;41.82;100158.34;4468078;32;33430;-71
2022/04/28 11:14:23;;;;;;;;;;;;;;;20.15;41.50;100160.78;4487367;31;34321;-68
2022/04/28 11:16:51;;;;;;;;;;;;;;;19.85;41.82;100155.97;4482025;31;33179;-71
2022/04/28 11:19:19;;;;;;;;;;;;;;;19.99;41.45;100160.75;4467965;32;34538;-67
2022/04/28 11:21:47;;;;;;;;;;;;;;;19.47;41.90;100156.28;4487415;31;32970;-67
2022/04/28 11:24:15;;;;;;;;;;;;;;;19.89;41.11;100163.59;4465776;31;33868;-67
2022/04/28 11:26:47;;;;;;;;;;;;;;;20.05;41.89;100164.69;4471902;31;33586;-67
2022/04/28 11:29:16;;;;;;;;;;;;;;;19.70;41.84;100162.00;4469742;31;32734;-68
2022/04/28 11:31:48;;;;;;;;;;;;;;;19.95;41.04;100162.09;4468989;32;33813;-69
2022/04/28 11:34:17;;;;;;;;;;;;;;;19.36;42.61;100163.84;4466740;31;33087;-66
2022/04/28 11:36:45;;;;;;;;;;;;;;;20.30;40.79;100173.75;4480813;31;34047;-68
2022/04/28 11:39:13;;;;;;;;;;;;;;;20.21;41.02;100171.00;4491613;31;34120;-69
2022/04/28 11:41:42;;;;;;;;;;;;;;;19.40;42.48;100171.50;4475632;32;33401;-69
2022/04/28 11:44:16;;;;;;;;;;;;;;;20.00;41.50;100176.06;4492176;31;35419;-68
2022/04/28 11:46:45;;;;;;;;;;;;;;;19.56;41.53;100184.31;4475770;31;31943;-69
2022/04/28 11:49:13;;;;;;;;;;;;;;;20.61;40.39;100180.28;4468313;32;32555;-69
2022/04/28 11:51:41;;;;;;;;;;;;;;;19.69;40.87;100189.34;4484420;31;34635;-72
2022/04/28 11:54:20;;;;;;;;;;;;;;;20.16;40.99;100173.38;4482575;31;36566;-69
2022/04/28 11:56:49;;;;;;;;;;;;;;;20.92;39.87;100176.84;4492082;31;33833;-69
2022/04/28 11:59:17;;;;;;;;;;;;;;;19.92;40.31;100182.28;4472372;31;32554;-69
2022/04/28 12:01:46;;;;;;;;;;;;;;;20.21;39.57;100179.16;4484370;31;33041;-71
2022/04/28 12:04:16;;;;;;;;;;;;;;;20.64;39.38;100173.63;4486202;31;34408;-71
2022/04/28 12:06:48;;;;;;;;;;;;;;;20.87;38.49;100166.50;4484394;31;34533;-72
2022/04/28 12:14:52;;;;;;;;;;;;;;;20.52;38.42;100170.41;4484588;31;34590;-68
2022/04/28 12:20:11;;;;;;;;;;;;;;;20.73;37.75;100163.59;4483978;31;32611;-69
2022/04/28 12:22:39;;;;;;;;;;;;;;;20.52;38.55;100173.13;4478476;31;33077;-71
2022/04/28 12:25:11;;;;;;;;;;;;;;;20.53;37.94;100171.25;4482172;31;35276;-73
2022/04/28 12:27:41;;;;;;;;;;;;;;;20.55;38.74;100180.09;4484999;31;34677;-68
2022/04/28 12:30:09;;;;;;;;;;;;;;;20.84;37.86;100168.72;4489887;31;33999;-68
2022/04/28 12:32:41;;;;;;;;;;;;;;;20.93;37.42;100168.53;4479362;32;33151;-71
2022/04/28 12:35:09;;;;;;;;;;;;;;;20.91;36.83;100167.00;4491725;31;34287;-67
2022/04/28 12:37:41;;;;;;;;;;;;;;;21.01;37.32;100170.41;4480597;31;32419;-68
2022/04/28 12:40:12;;;;;;;;;;;;;;;20.82;38.81;100174.31;4481146;31;32879;-71
2022/04/28 12:42:44;;;;;;;;;;;;;;;20.93;36.55;100173.97;4456928;32;32712;-68
2022/04/28 12:45:13;;;;;;;;;;;;;;;20.07;38.53;100163.50;4487894;31;34438;-68
2022/04/28 12:47:42;;;;;;;;;;;;;;;20.76;37.30;100166.00;4469912;31;33364;-69
2022/04/28 12:50:20;;;;;;;;;;;;;;;20.65;37.92;100169.91;4481511;31;33720;-68
2022/04/28 12:52:48;;;;;;;;;;;;;;;20.50;38.30;100166.97;4478501;31;34345;-67
2022/04/28 12:55:18;;;;;;;;;;;;;;;20.81;36.63;100158.19;4481640;31;34387;-68
2022/04/28 12:57:46;;;;;;;;;;;;;;;20.44;37.65;100165.75;4482398;31;33624;-67
2022/04/28 13:00:18;;;;;;;;;;;;;;;21.16;36.82;100159.66;4492450;31;33021;-68
2022/04/28 13:02:47;;;;;;;;;;;;;;;20.74;37.33;100166.16;4485070;31;34148;-70
2022/04/28 13:05:17;;;;;;;;;;;;;;;20.76;35.88;100163.25;4487600;31;35883;-67
2022/04/28 13:08:04;;;;;;;;;;;;;;;21.01;36.31;100169.53;4482100;31;32996;-68
2022/04/28 13:10:33;;;;;;;;;;;;;;;21.02;35.81;100165.78;4489483;31;32842;-68
2022/04/28 13:13:01;;;;;;;;;;;;;;;20.83;36.95;100162.41;4487013;31;33241;-70
2022/04/28 13:15:29;;;;;;;;;;;;;;;21.39;35.73;100163.38;4473509;31;33838;-72
2022/04/28 13:17:57;;;;;;;;;;;;;;;21.25;35.46;100160.47;4483210;31;34700;-73
2022/04/28 13:20:25;;;;;;;;;;;;;;;21.16;35.42;100163.22;4492809;31;33931;-68
2022/04/28 13:22:53;;;;;;;;;;;;;;;21.94;34.64;100169.81;4487404;31;35405;-68
2022/04/28 13:25:21;;;;;;;;;;;;;;;21.71;35.00;100177.06;4490454;31;33023;-68
2022/04/28 13:27:49;;;;;;;;;;;;;;;21.62;34.11;100168.06;4484748;31;32610;-68
2022/04/28 13:30:17;;;;;;;;;;;;;;;21.72;33.53;100157.81;4480693;31;33993;-68
2022/04/28 13:32:45;;;;;;;;;;;;;;;22.24;33.05;100159.09;4481994;31;34626;-68
2022/04/28 13:35:14;;;;;;;;;;;;;;;21.50;34.38;100162.13;4456972;31;32899;-67
2022/04/28 13:37:41;;;;;;;;;;;;;;;20.83;33.80;100161.56;4480259;31;33809;-67
2022/04/28 13:40:09;;;;;;;;;;;;;;;21.91;33.01;100163.84;4480406;31;34210;-68